sensor_id;sensor_type;location;lat;lon;timestamp;temperature;humidity
46758;DHT22;32509;47.750;-3.396;2023-06-24T00:02:06;19.90;99.90
46758;DHT22;32509;47.750;-3.396;2023-06-24T00:04:32;19.90;99.90
46758;DHT22;32509;47.750;-3.396;2023-06-24T00:06:59;19.80;99.90
46758;DHT22;32509;47.750;-3.396;2023-06-24T00:09:26;19.80;99.90
46758;DHT22;32509;47.750;-3.396;2023-06-24T00:11:54;19.80;99.90
46758;DHT22;32509;47.750;-3.396;2023-06-24T00:14:20;19.80;99.90
46758;DHT22;32509;47.750;-3.396;2023-06-24T00:16:47;19.80;99.90
46758;DHT22;32509;47.750;-3.396;2023-06-24T00:19:19;19.70;99.90
46758;DHT22;32509;47.750;-3.396;2023-06-24T00:21:45;19.70;99.90
46758;DHT22;32509;47.750;-3.396;2023-06-24T00:24:10;19.70;99.90
46758;DHT22;32509;47.750;-3.396;2023-06-24T00:26:36;19.70;99.90
46758;DHT22;32509;47.750;-3.396;2023-06-24T00:29:02;19.70;99.90
46758;DHT22;32509;47.750;-3.396;2023-06-24T00:31:28;19.70;99.90
46758;DHT22;32509;47.750;-3.396;2023-06-24T00:33:53;19.70;99.90
46758;DHT22;32509;47.750;-3.396;2023-06-24T00:36:20;19.70;99.90
46758;DHT22;32509;47.750;-3.396;2023-06-24T00:38:46;19.60;99.90
46758;DHT22;32509;47.750;-3.396;2023-06-24T00:41:11;19.60;99.90
46758;DHT22;32509;47.750;-3.396;2023-06-24T00:43:37;19.60;99.90
46758;DHT22;32509;47.750;-3.396;2023-06-24T00:46:04;19.60;99.90
46758;DHT22;32509;47.750;-3.396;2023-06-24T00:48:32;19.60;99.90
46758;DHT22;32509;47.750;-3.396;2023-06-24T00:50:57;19.50;99.90
46758;DHT22;32509;47.750;-3.396;2023-06-24T00:53:24;19.50;99.90
46758;DHT22;32509;47.750;-3.396;2023-06-24T00:55:53;19.60;99.90
46758;DHT22;32509;47.750;-3.396;2023-06-24T00:58:20;19.50;99.90
46758;DHT22;32509;47.750;-3.396;2023-06-24T01:00:47;19.50;99.90
46758;DHT22;32509;47.750;-3.396;2023-06-24T01:03:23;19.50;99.90
46758;DHT22;32509;47.750;-3.396;2023-06-24T01:05:49;19.50;99.90
46758;DHT22;32509;47.750;-3.396;2023-06-24T01:08:15;19.50;99.90
46758;DHT22;32509;47.750;-3.396;2023-06-24T01:10:41;19.50;99.90
46758;DHT22;32509;47.750;-3.396;2023-06-24T01:13:08;19.50;99.90
46758;DHT22;32509;47.750;-3.396;2023-06-24T01:15:35;19.50;99.90
46758;DHT22;32509;47.750;-3.396;2023-06-24T01:18:07;19.50;99.90
46758;DHT22;32509;47.750;-3.396;2023-06-24T01:21:06;19.40;99.90
46758;DHT22;32509;47.750;-3.396;2023-06-24T01:26:19;19.50;99.90
46758;DHT22;32509;47.750;-3.396;2023-06-24T01:34:20;19.40;99.90
46758;DHT22;32509;47.750;-3.396;2023-06-24T01:37:27;19.40;99.90
46758;DHT22;32509;47.750;-3.396;2023-06-24T01:40:22;19.40;99.90
46758;DHT22;32509;47.750;-3.396;2023-06-24T01:42:50;19.40;99.90
46758;DHT22;32509;47.750;-3.396;2023-06-24T01:45:21;19.40;99.90
46758;DHT22;32509;47.750;-3.396;2023-06-24T01:47:50;19.40;99.90
46758;DHT22;32509;47.750;-3.396;2023-06-24T01:50:20;19.40;99.90
46758;DHT22;32509;47.750;-3.396;2023-06-24T01:52:47;19.40;99.90
46758;DHT22;32509;47.750;-3.396;2023-06-24T01:55:19;19.40;99.90
46758;DHT22;32509;47.750;-3.396;2023-06-24T01:57:48;19.40;99.90
46758;DHT22;32509;47.750;-3.396;2023-06-24T02:00:15;19.40;99.90
46758;DHT22;32509;47.750;-3.396;2023-06-24T02:02:43;19.40;99.90
46758;DHT22;32509;47.750;-3.396;2023-06-24T02:05:10;19.40;99.90
46758;DHT22;32509;47.750;-3.396;2023-06-24T02:07:38;19.40;99.90
46758;DHT22;32509;47.750;-3.396;2023-06-24T02:10:06;19.40;99.90
46758;DHT22;32509;47.750;-3.396;2023-06-24T02:12:33;19.30;99.90
46758;DHT22;32509;47.750;-3.396;2023-06-24T02:14:59;19.30;99.90
46758;DHT22;32509;47.750;-3.396;2023-06-24T02:17:26;19.30;99.90
46758;DHT22;32509;47.750;-3.396;2023-06-24T02:19:55;19.30;99.90
46758;DHT22;32509;47.750;-3.396;2023-06-24T02:22:22;19.30;99.90
46758;DHT22;32509;47.750;-3.396;2023-06-24T02:24:49;19.30;99.90
46758;DHT22;32509;47.750;-3.396;2023-06-24T02:27:16;19.30;99.90
46758;DHT22;32509;47.750;-3.396;2023-06-24T02:29:43;19.30;99.90
46758;DHT22;32509;47.750;-3.396;2023-06-24T02:32:09;19.30;99.90
46758;DHT22;32509;47.750;-3.396;2023-06-24T02:34:35;19.30;99.90
46758;DHT22;32509;47.750;-3.396;2023-06-24T02:37:01;19.20;99.90
46758;DHT22;32509;47.750;-3.396;2023-06-24T02:39:27;19.20;99.90
46758;DHT22;32509;47.750;-3.396;2023-06-24T02:41:53;19.20;99.90
46758;DHT22;32509;47.750;-3.396;2023-06-24T02:44:19;19.20;99.90
46758;DHT22;32509;47.750;-3.396;2023-06-24T02:46:46;19.20;99.90
46758;DHT22;32509;47.750;-3.396;2023-06-24T02:49:16;19.20;99.90
46758;DHT22;32509;47.750;-3.396;2023-06-24T02:51:43;19.20;99.90
46758;DHT22;32509;47.750;-3.396;2023-06-24T02:54:10;19.20;99.90
46758;DHT22;32509;47.750;-3.396;2023-06-24T02:56:37;19.20;99.90
46758;DHT22;32509;47.750;-3.396;2023-06-24T02:59:07;19.20;99.90
46758;DHT22;32509;47.750;-3.396;2023-06-24T03:01:35;19.20;99.90
46758;DHT22;32509;47.750;-3.396;2023-06-24T03:04:04;19.20;99.90
46758;DHT22;32509;47.750;-3.396;2023-06-24T03:06:31;19.20;99.90
46758;DHT22;32509;47.750;-3.396;2023-06-24T03:08:57;19.10;99.90
46758;DHT22;32509;47.750;-3.396;2023-06-24T03:11:24;19.10;99.90
46758;DHT22;32509;47.750;-3.396;2023-06-24T03:13:51;19.10;99.90
46758;DHT22;32509;47.750;-3.396;2023-06-24T03:16:17;19.10;99.90
46758;DHT22;32509;47.750;-3.396;2023-06-24T03:18:43;19.10;99.90
46758;DHT22;32509;47.750;-3.396;2023-06-24T03:21:09;19.10;99.90
46758;DHT22;32509;47.750;-3.396;2023-06-24T03:23:35;19.10;99.90
46758;DHT22;32509;47.750;-3.396;2023-06-24T03:26:02;19.10;99.90
46758;DHT22;32509;47.750;-3.396;2023-06-24T03:28:31;19.10;99.90
46758;DHT22;32509;47.750;-3.396;2023-06-24T03:30:58;19.10;99.90
46758;DHT22;32509;47.750;-3.396;2023-06-24T03:33:23;19.10;99.90
46758;DHT22;32509;47.750;-3.396;2023-06-24T03:35:52;19.10;99.90
46758;DHT22;32509;47.750;-3.396;2023-06-24T03:38:20;19.10;99.90
46758;DHT22;32509;47.750;-3.396;2023-06-24T03:40:47;19.00;99.90
46758;DHT22;32509;47.750;-3.396;2023-06-24T03:43:12;19.00;99.90
46758;DHT22;32509;47.750;-3.396;2023-06-24T03:45:38;19.00;99.90
46758;DHT22;32509;47.750;-3.396;2023-06-24T03:48:04;19.00;99.90
46758;DHT22;32509;47.750;-3.396;2023-06-24T03:50:30;19.00;99.90
46758;DHT22;32509;47.750;-3.396;2023-06-24T03:52:56;19.00;99.90
46758;DHT22;32509;47.750;-3.396;2023-06-24T03:55:21;19.00;99.90
46758;DHT22;32509;47.750;-3.396;2023-06-24T03:57:47;19.00;99.90
46758;DHT22;32509;47.750;-3.396;2023-06-24T04:00:13;19.00;99.90
46758;DHT22;32509;47.750;-3.396;2023-06-24T04:02:42;19.00;99.90
46758;DHT22;32509;47.750;-3.396;2023-06-24T04:05:09;19.00;99.90
46758;DHT22;32509;47.750;-3.396;2023-06-24T04:07:36;18.90;99.90
46758;DHT22;32509;47.750;-3.396;2023-06-24T04:10:05;18.90;99.90
46758;DHT22;32509;47.750;-3.396;2023-06-24T04:12:34;19.00;99.90
46758;DHT22;32509;47.750;-3.396;2023-06-24T04:15:04;18.90;99.90
46758;DHT22;32509;47.750;-3.396;2023-06-24T04:17:30;19.00;99.90
46758;DHT22;32509;47.750;-3.396;2023-06-24T04:19:57;18.90;99.90
46758;DHT22;32509;47.750;-3.396;2023-06-24T04:22:24;19.00;99.90
46758;DHT22;32509;47.750;-3.396;2023-06-24T04:24:52;18.90;99.90
46758;DHT22;32509;47.750;-3.396;2023-06-24T04:27:18;19.00;99.90
46758;DHT22;32509;47.750;-3.396;2023-06-24T04:29:45;19.00;99.90
46758;DHT22;32509;47.750;-3.396;2023-06-24T04:32:11;19.00;99.90
46758;DHT22;32509;47.750;-3.396;2023-06-24T04:34:37;18.90;99.90
46758;DHT22;32509;47.750;-3.396;2023-06-24T04:37:03;19.00;99.90
46758;DHT22;32509;47.750;-3.396;2023-06-24T04:39:29;18.90;99.90
46758;DHT22;32509;47.750;-3.396;2023-06-24T04:41:55;19.00;99.90
46758;DHT22;32509;47.750;-3.396;2023-06-24T04:44:21;19.00;99.90
46758;DHT22;32509;47.750;-3.396;2023-06-24T04:46:46;19.00;99.90
46758;DHT22;32509;47.750;-3.396;2023-06-24T04:49:13;19.00;99.90
46758;DHT22;32509;47.750;-3.396;2023-06-24T04:51:41;18.90;99.90
46758;DHT22;32509;47.750;-3.396;2023-06-24T04:54:08;18.90;99.90
46758;DHT22;32509;47.750;-3.396;2023-06-24T04:56:34;18.90;99.90
46758;DHT22;32509;47.750;-3.396;2023-06-24T04:59:01;18.90;99.90
46758;DHT22;32509;47.750;-3.396;2023-06-24T05:01:26;18.90;99.90
46758;DHT22;32509;47.750;-3.396;2023-06-24T05:03:52;19.00;99.90
46758;DHT22;32509;47.750;-3.396;2023-06-24T05:06:18;18.90;99.90
46758;DHT22;32509;47.750;-3.396;2023-06-24T05:08:44;18.90;99.90
46758;DHT22;32509;47.750;-3.396;2023-06-24T05:11:09;18.90;99.90
46758;DHT22;32509;47.750;-3.396;2023-06-24T05:13:35;18.90;99.90
46758;DHT22;32509;47.750;-3.396;2023-06-24T05:16:01;18.90;99.90
46758;DHT22;32509;47.750;-3.396;2023-06-24T05:18:27;18.90;99.90
46758;DHT22;32509;47.750;-3.396;2023-06-24T05:20:52;18.90;99.90
46758;DHT22;32509;47.750;-3.396;2023-06-24T05:23:18;18.90;99.90
46758;DHT22;32509;47.750;-3.396;2023-06-24T05:25:44;19.00;99.90
46758;DHT22;32509;47.750;-3.396;2023-06-24T05:28:10;19.00;99.90
46758;DHT22;32509;47.750;-3.396;2023-06-24T05:30:35;19.00;99.90
46758;DHT22;32509;47.750;-3.396;2023-06-24T05:33:01;19.00;99.90
46758;DHT22;32509;47.750;-3.396;2023-06-24T05:35:27;19.00;99.90
46758;DHT22;32509;47.750;-3.396;2023-06-24T05:37:52;19.00;99.90
46758;DHT22;32509;47.750;-3.396;2023-06-24T05:40:18;19.00;99.90
46758;DHT22;32509;47.750;-3.396;2023-06-24T05:42:44;19.10;99.90
46758;DHT22;32509;47.750;-3.396;2023-06-24T05:45:10;19.00;99.90
46758;DHT22;32509;47.750;-3.396;2023-06-24T05:47:37;19.10;99.90
46758;DHT22;32509;47.750;-3.396;2023-06-24T05:50:04;19.10;99.90
46758;DHT22;32509;47.750;-3.396;2023-06-24T05:52:29;19.10;99.90
46758;DHT22;32509;47.750;-3.396;2023-06-24T05:54:55;19.10;99.90
46758;DHT22;32509;47.750;-3.396;2023-06-24T05:57:21;19.10;99.90
46758;DHT22;32509;47.750;-3.396;2023-06-24T05:59:47;19.10;99.90
46758;DHT22;32509;47.750;-3.396;2023-06-24T06:02:12;19.20;99.90
46758;DHT22;32509;47.750;-3.396;2023-06-24T06:04:38;19.20;99.90
46758;DHT22;32509;47.750;-3.396;2023-06-24T06:07:04;19.20;99.90
46758;DHT22;32509;47.750;-3.396;2023-06-24T06:09:30;19.20;99.90
46758;DHT22;32509;47.750;-3.396;2023-06-24T06:11:56;19.30;99.90
46758;DHT22;32509;47.750;-3.396;2023-06-24T06:14:22;19.30;99.90
46758;DHT22;32509;47.750;-3.396;2023-06-24T06:16:47;19.30;99.90
46758;DHT22;32509;47.750;-3.396;2023-06-24T06:19:13;19.30;99.90
46758;DHT22;32509;47.750;-3.396;2023-06-24T06:21:39;19.30;99.90
46758;DHT22;32509;47.750;-3.396;2023-06-24T06:24:05;19.40;99.90
46758;DHT22;32509;47.750;-3.396;2023-06-24T06:26:31;19.40;99.90
46758;DHT22;32509;47.750;-3.396;2023-06-24T06:28:57;19.40;99.90
46758;DHT22;32509;47.750;-3.396;2023-06-24T06:31:22;19.50;99.90
46758;DHT22;32509;47.750;-3.396;2023-06-24T06:33:51;19.50;99.90
46758;DHT22;32509;47.750;-3.396;2023-06-24T06:36:17;19.50;99.90
46758;DHT22;32509;47.750;-3.396;2023-06-24T06:38:42;19.50;99.90
46758;DHT22;32509;47.750;-3.396;2023-06-24T06:41:08;19.60;99.90
46758;DHT22;32509;47.750;-3.396;2023-06-24T06:43:34;19.60;99.90
46758;DHT22;32509;47.750;-3.396;2023-06-24T06:46:00;19.70;99.90
46758;DHT22;32509;47.750;-3.396;2023-06-24T06:48:25;19.70;99.90
46758;DHT22;32509;47.750;-3.396;2023-06-24T06:50:51;19.70;99.90
46758;DHT22;32509;47.750;-3.396;2023-06-24T06:53:18;19.70;99.90
46758;DHT22;32509;47.750;-3.396;2023-06-24T06:55:44;19.70;99.90
46758;DHT22;32509;47.750;-3.396;2023-06-24T06:58:10;19.80;99.90
46758;DHT22;32509;47.750;-3.396;2023-06-24T07:00:36;19.80;99.90
46758;DHT22;32509;47.750;-3.396;2023-06-24T07:03:02;19.80;99.90
46758;DHT22;32509;47.750;-3.396;2023-06-24T07:05:28;19.80;99.90
46758;DHT22;32509;47.750;-3.396;2023-06-24T07:07:54;19.90;99.90
46758;DHT22;32509;47.750;-3.396;2023-06-24T07:10:20;19.90;99.90
46758;DHT22;32509;47.750;-3.396;2023-06-24T07:12:46;19.90;99.90
46758;DHT22;32509;47.750;-3.396;2023-06-24T07:15:11;19.90;99.90
46758;DHT22;32509;47.750;-3.396;2023-06-24T07:17:37;20.00;99.90
46758;DHT22;32509;47.750;-3.396;2023-06-24T07:20:03;20.00;99.90
46758;DHT22;32509;47.750;-3.396;2023-06-24T07:22:29;20.00;99.90
46758;DHT22;32509;47.750;-3.396;2023-06-24T07:24:56;20.10;99.90
46758;DHT22;32509;47.750;-3.396;2023-06-24T07:27:23;20.20;99.90
46758;DHT22;32509;47.750;-3.396;2023-06-24T07:29:48;20.10;99.90
46758;DHT22;32509;47.750;-3.396;2023-06-24T07:32:14;20.20;99.90
46758;DHT22;32509;47.750;-3.396;2023-06-24T07:34:40;20.20;99.90
46758;DHT22;32509;47.750;-3.396;2023-06-24T07:37:05;20.30;99.90
46758;DHT22;32509;47.750;-3.396;2023-06-24T07:39:31;20.30;99.90
46758;DHT22;32509;47.750;-3.396;2023-06-24T07:41:57;20.40;99.90
46758;DHT22;32509;47.750;-3.396;2023-06-24T07:44:23;20.40;99.90
46758;DHT22;32509;47.750;-3.396;2023-06-24T07:46:48;20.50;99.90
46758;DHT22;32509;47.750;-3.396;2023-06-24T07:49:17;20.60;99.90
46758;DHT22;32509;47.750;-3.396;2023-06-24T07:51:42;20.60;99.90
46758;DHT22;32509;47.750;-3.396;2023-06-24T07:54:10;20.60;99.90
46758;DHT22;32509;47.750;-3.396;2023-06-24T07:56:36;20.70;99.90
46758;DHT22;32509;47.750;-3.396;2023-06-24T07:59:02;20.70;99.90
46758;DHT22;32509;47.750;-3.396;2023-06-24T08:01:28;20.80;99.90
46758;DHT22;32509;47.750;-3.396;2023-06-24T08:03:53;20.80;99.90
46758;DHT22;32509;47.750;-3.396;2023-06-24T08:06:19;20.80;99.90
46758;DHT22;32509;47.750;-3.396;2023-06-24T08:08:45;20.90;99.90
46758;DHT22;32509;47.750;-3.396;2023-06-24T08:11:12;21.00;99.90
46758;DHT22;32509;47.750;-3.396;2023-06-24T08:13:38;21.00;99.90
46758;DHT22;32509;47.750;-3.396;2023-06-24T08:16:05;21.10;99.90
46758;DHT22;32509;47.750;-3.396;2023-06-24T08:18:30;21.20;99.90
46758;DHT22;32509;47.750;-3.396;2023-06-24T08:20:57;21.20;99.90
46758;DHT22;32509;47.750;-3.396;2023-06-24T08:23:22;21.30;99.90
46758;DHT22;32509;47.750;-3.396;2023-06-24T08:25:48;21.30;99.90
46758;DHT22;32509;47.750;-3.396;2023-06-24T08:28:14;21.40;99.90
46758;DHT22;32509;47.750;-3.396;2023-06-24T08:30:40;21.40;99.90
46758;DHT22;32509;47.750;-3.396;2023-06-24T08:33:05;21.50;99.90
46758;DHT22;32509;47.750;-3.396;2023-06-24T08:35:31;21.50;99.90
46758;DHT22;32509;47.750;-3.396;2023-06-24T08:37:57;21.50;99.90
46758;DHT22;32509;47.750;-3.396;2023-06-24T08:40:23;21.60;99.90
46758;DHT22;32509;47.750;-3.396;2023-06-24T08:42:48;21.60;99.90
46758;DHT22;32509;47.750;-3.396;2023-06-24T08:45:14;21.60;99.90
46758;DHT22;32509;47.750;-3.396;2023-06-24T08:47:40;21.70;99.90
46758;DHT22;32509;47.750;-3.396;2023-06-24T08:50:13;21.70;99.90
46758;DHT22;32509;47.750;-3.396;2023-06-24T08:52:42;21.80;99.90
46758;DHT22;32509;47.750;-3.396;2023-06-24T08:55:10;21.80;99.90
46758;DHT22;32509;47.750;-3.396;2023-06-24T08:57:39;21.90;99.90
46758;DHT22;32509;47.750;-3.396;2023-06-24T09:00:06;21.90;99.90
46758;DHT22;32509;47.750;-3.396;2023-06-24T09:02:36;21.90;99.90
46758;DHT22;32509;47.750;-3.396;2023-06-24T09:05:04;22.00;99.90
46758;DHT22;32509;47.750;-3.396;2023-06-24T09:07:30;22.10;99.90
46758;DHT22;32509;47.750;-3.396;2023-06-24T09:09:56;22.10;99.90
46758;DHT22;32509;47.750;-3.396;2023-06-24T09:12:24;22.10;99.90
46758;DHT22;32509;47.750;-3.396;2023-06-24T09:14:50;22.20;99.90
46758;DHT22;32509;47.750;-3.396;2023-06-24T09:17:17;22.20;99.90
46758;DHT22;32509;47.750;-3.396;2023-06-24T09:19:43;22.20;99.90
46758;DHT22;32509;47.750;-3.396;2023-06-24T09:22:09;22.40;99.90
46758;DHT22;32509;47.750;-3.396;2023-06-24T09:24:47;22.40;99.90
46758;DHT22;32509;47.750;-3.396;2023-06-24T09:27:17;22.30;99.90
46758;DHT22;32509;47.750;-3.396;2023-06-24T09:29:47;22.20;99.90
46758;DHT22;32509;47.750;-3.396;2023-06-24T09:32:14;22.20;99.90
46758;DHT22;32509;47.750;-3.396;2023-06-24T09:34:40;22.30;99.90
46758;DHT22;32509;47.750;-3.396;2023-06-24T09:37:06;22.40;99.90
46758;DHT22;32509;47.750;-3.396;2023-06-24T09:39:37;22.40;99.90
46758;DHT22;32509;47.750;-3.396;2023-06-24T09:42:04;22.40;99.90
46758;DHT22;32509;47.750;-3.396;2023-06-24T09:44:30;22.50;99.90
46758;DHT22;32509;47.750;-3.396;2023-06-24T09:46:59;22.60;99.90
46758;DHT22;32509;47.750;-3.396;2023-06-24T09:49:25;22.50;99.90
46758;DHT22;32509;47.750;-3.396;2023-06-24T09:51:56;22.50;99.90
46758;DHT22;32509;47.750;-3.396;2023-06-24T09:54:27;22.50;99.90
46758;DHT22;32509;47.750;-3.396;2023-06-24T09:56:54;22.60;99.90
46758;DHT22;32509;47.750;-3.396;2023-06-24T09:59:20;22.60;99.90
46758;DHT22;32509;47.750;-3.396;2023-06-24T10:01:48;22.60;99.90
46758;DHT22;32509;47.750;-3.396;2023-06-24T10:04:19;22.60;99.90
46758;DHT22;32509;47.750;-3.396;2023-06-24T10:06:46;22.70;99.90
46758;DHT22;32509;47.750;-3.396;2023-06-24T10:09:13;22.70;99.90
46758;DHT22;32509;47.750;-3.396;2023-06-24T10:11:43;22.60;99.90
46758;DHT22;32509;47.750;-3.396;2023-06-24T10:14:09;22.70;99.90
46758;DHT22;32509;47.750;-3.396;2023-06-24T10:16:34;22.80;99.90
46758;DHT22;32509;47.750;-3.396;2023-06-24T10:19:01;22.90;99.90
46758;DHT22;32509;47.750;-3.396;2023-06-24T10:21:49;22.90;99.90
46758;DHT22;32509;47.750;-3.396;2023-06-24T10:24:32;22.90;99.90
46758;DHT22;32509;47.750;-3.396;2023-06-24T10:27:08;22.90;99.90
46758;DHT22;32509;47.750;-3.396;2023-06-24T10:29:38;23.10;99.90
46758;DHT22;32509;47.750;-3.396;2023-06-24T10:32:08;23.10;99.90
46758;DHT22;32509;47.750;-3.396;2023-06-24T10:37:20;23.10;99.90
46758;DHT22;32509;47.750;-3.396;2023-06-24T10:39:55;23.10;99.90
46758;DHT22;32509;47.750;-3.396;2023-06-24T10:42:40;23.20;99.90
46758;DHT22;32509;47.750;-3.396;2023-06-24T10:47:39;23.10;99.90
46758;DHT22;32509;47.750;-3.396;2023-06-24T10:50:06;23.20;99.90
46758;DHT22;32509;47.750;-3.396;2023-06-24T10:52:35;23.20;99.90
46758;DHT22;32509;47.750;-3.396;2023-06-24T10:55:03;23.20;99.90
46758;DHT22;32509;47.750;-3.396;2023-06-24T10:57:29;23.30;99.90
46758;DHT22;32509;47.750;-3.396;2023-06-24T10:59:57;23.30;99.90
46758;DHT22;32509;47.750;-3.396;2023-06-24T11:02:25;23.30;99.90
46758;DHT22;32509;47.750;-3.396;2023-06-24T11:04:53;23.30;99.90
46758;DHT22;32509;47.750;-3.396;2023-06-24T11:07:27;23.30;99.90
46758;DHT22;32509;47.750;-3.396;2023-06-24T11:09:54;23.30;99.90
46758;DHT22;32509;47.750;-3.396;2023-06-24T11:12:29;23.30;99.90
46758;DHT22;32509;47.750;-3.396;2023-06-24T11:15:14;23.30;99.90
46758;DHT22;32509;47.750;-3.396;2023-06-24T11:17:40;23.30;99.90
46758;DHT22;32509;47.750;-3.396;2023-06-24T11:20:13;23.30;99.90
46758;DHT22;32509;47.750;-3.396;2023-06-24T11:22:43;23.40;99.90
46758;DHT22;32509;47.750;-3.396;2023-06-24T11:25:16;23.40;99.90
46758;DHT22;32509;47.750;-3.396;2023-06-24T11:27:42;23.50;99.90
46758;DHT22;32509;47.750;-3.396;2023-06-24T11:30:08;23.50;99.90
46758;DHT22;32509;47.750;-3.396;2023-06-24T11:32:41;23.40;99.90
46758;DHT22;32509;47.750;-3.396;2023-06-24T11:35:09;23.50;99.90
46758;DHT22;32509;47.750;-3.396;2023-06-24T11:37:35;23.50;99.90
46758;DHT22;32509;47.750;-3.396;2023-06-24T11:40:09;23.50;99.90
46758;DHT22;32509;47.750;-3.396;2023-06-24T11:42:39;23.50;99.90
46758;DHT22;32509;47.750;-3.396;2023-06-24T11:45:07;23.40;99.90
46758;DHT22;32509;47.750;-3.396;2023-06-24T11:47:34;23.50;99.90
46758;DHT22;32509;47.750;-3.396;2023-06-24T11:50:00;23.50;99.90
46758;DHT22;32509;47.750;-3.396;2023-06-24T11:52:42;23.50;99.90
46758;DHT22;32509;47.750;-3.396;2023-06-24T11:55:23;23.40;99.90
46758;DHT22;32509;47.750;-3.396;2023-06-24T12:00:26;23.40;99.90
46758;DHT22;32509;47.750;-3.396;2023-06-24T12:03:03;23.30;99.90
46758;DHT22;32509;47.750;-3.396;2023-06-24T12:05:34;23.40;99.90
46758;DHT22;32509;47.750;-3.396;2023-06-24T12:08:05;23.50;99.90
46758;DHT22;32509;47.750;-3.396;2023-06-24T12:10:35;23.60;99.90
46758;DHT22;32509;47.750;-3.396;2023-06-24T12:13:01;23.60;99.90
46758;DHT22;32509;47.750;-3.396;2023-06-24T12:15:28;23.70;99.90
46758;DHT22;32509;47.750;-3.396;2023-06-24T12:17:54;23.70;99.90
46758;DHT22;32509;47.750;-3.396;2023-06-24T12:20:20;23.80;99.90
46758;DHT22;32509;47.750;-3.396;2023-06-24T12:22:47;23.80;99.90
46758;DHT22;32509;47.750;-3.396;2023-06-24T12:25:13;23.80;99.90
46758;DHT22;32509;47.750;-3.396;2023-06-24T12:27:39;23.80;99.90
46758;DHT22;32509;47.750;-3.396;2023-06-24T12:30:09;23.70;99.90
46758;DHT22;32509;47.750;-3.396;2023-06-24T12:32:35;23.80;99.90
46758;DHT22;32509;47.750;-3.396;2023-06-24T12:35:01;23.80;99.90
46758;DHT22;32509;47.750;-3.396;2023-06-24T12:37:31;23.80;99.90
46758;DHT22;32509;47.750;-3.396;2023-06-24T12:39:58;23.80;99.90
46758;DHT22;32509;47.750;-3.396;2023-06-24T12:42:25;23.70;99.90
46758;DHT22;32509;47.750;-3.396;2023-06-24T12:44:51;23.80;99.90
46758;DHT22;32509;47.750;-3.396;2023-06-24T12:47:16;23.90;99.90
46758;DHT22;32509;47.750;-3.396;2023-06-24T12:49:43;23.90;99.90
46758;DHT22;32509;47.750;-3.396;2023-06-24T12:52:09;23.80;99.90
46758;DHT22;32509;47.750;-3.396;2023-06-24T12:54:35;23.90;99.90
46758;DHT22;32509;47.750;-3.396;2023-06-24T12:57:01;24.00;99.90
46758;DHT22;32509;47.750;-3.396;2023-06-24T12:59:33;23.90;99.90
46758;DHT22;32509;47.750;-3.396;2023-06-24T13:01:59;23.90;99.90
46758;DHT22;32509;47.750;-3.396;2023-06-24T13:04:24;23.90;99.90
46758;DHT22;32509;47.750;-3.396;2023-06-24T13:06:53;23.90;99.90
46758;DHT22;32509;47.750;-3.396;2023-06-24T13:09:20;23.90;99.90
46758;DHT22;32509;47.750;-3.396;2023-06-24T13:11:46;23.90;99.90
46758;DHT22;32509;47.750;-3.396;2023-06-24T13:14:12;23.80;99.90
46758;DHT22;32509;47.750;-3.396;2023-06-24T13:16:39;23.90;99.90
46758;DHT22;32509;47.750;-3.396;2023-06-24T13:19:04;23.80;99.90
46758;DHT22;32509;47.750;-3.396;2023-06-24T13:21:33;23.80;99.90
46758;DHT22;32509;47.750;-3.396;2023-06-24T13:23:59;23.80;99.90
46758;DHT22;32509;47.750;-3.396;2023-06-24T13:26:24;23.80;99.90
46758;DHT22;32509;47.750;-3.396;2023-06-24T13:28:50;23.70;99.90
46758;DHT22;32509;47.750;-3.396;2023-06-24T13:31:18;23.70;99.90
46758;DHT22;32509;47.750;-3.396;2023-06-24T13:33:44;23.70;99.90
46758;DHT22;32509;47.750;-3.396;2023-06-24T13:36:25;23.70;99.90
46758;DHT22;32509;47.750;-3.396;2023-06-24T13:38:52;23.70;99.90
46758;DHT22;32509;47.750;-3.396;2023-06-24T13:41:18;23.70;99.90
46758;DHT22;32509;47.750;-3.396;2023-06-24T13:43:44;23.60;99.90
46758;DHT22;32509;47.750;-3.396;2023-06-24T13:46:09;23.60;99.90
46758;DHT22;32509;47.750;-3.396;2023-06-24T13:48:35;23.60;99.90
46758;DHT22;32509;47.750;-3.396;2023-06-24T13:51:01;23.60;99.90
46758;DHT22;32509;47.750;-3.396;2023-06-24T13:53:27;23.50;99.90
46758;DHT22;32509;47.750;-3.396;2023-06-24T13:55:52;23.50;99.90
46758;DHT22;32509;47.750;-3.396;2023-06-24T13:58:18;23.50;99.90
46758;DHT22;32509;47.750;-3.396;2023-06-24T14:00:44;23.40;99.90
46758;DHT22;32509;47.750;-3.396;2023-06-24T14:03:09;23.30;99.90
46758;DHT22;32509;47.750;-3.396;2023-06-24T14:05:35;23.30;99.90
46758;DHT22;32509;47.750;-3.396;2023-06-24T14:08:01;23.20;99.90
46758;DHT22;32509;47.750;-3.396;2023-06-24T14:10:27;23.20;99.90
46758;DHT22;32509;47.750;-3.396;2023-06-24T14:12:55;23.30;99.90
46758;DHT22;32509;47.750;-3.396;2023-06-24T14:15:20;23.30;99.90
46758;DHT22;32509;47.750;-3.396;2023-06-24T14:17:46;23.30;99.90
46758;DHT22;32509;47.750;-3.396;2023-06-24T14:20:12;23.20;99.90
46758;DHT22;32509;47.750;-3.396;2023-06-24T14:22:38;23.20;99.90
46758;DHT22;32509;47.750;-3.396;2023-06-24T14:25:04;23.20;99.90
46758;DHT22;32509;47.750;-3.396;2023-06-24T14:27:30;23.30;99.90
46758;DHT22;32509;47.750;-3.396;2023-06-24T14:29:55;23.30;99.90
46758;DHT22;32509;47.750;-3.396;2023-06-24T14:32:21;23.30;99.90
46758;DHT22;32509;47.750;-3.396;2023-06-24T14:34:47;23.30;99.90
46758;DHT22;32509;47.750;-3.396;2023-06-24T14:37:13;23.20;99.90
46758;DHT22;32509;47.750;-3.396;2023-06-24T14:39:40;23.20;99.90
46758;DHT22;32509;47.750;-3.396;2023-06-24T14:42:05;23.20;99.90
46758;DHT22;32509;47.750;-3.396;2023-06-24T14:44:32;23.20;99.90
46758;DHT22;32509;47.750;-3.396;2023-06-24T14:46:58;23.10;99.90
46758;DHT22;32509;47.750;-3.396;2023-06-24T14:49:24;23.10;99.90
46758;DHT22;32509;47.750;-3.396;2023-06-24T14:51:52;23.00;99.90
46758;DHT22;32509;47.750;-3.396;2023-06-24T14:54:17;23.00;99.90
46758;DHT22;32509;47.750;-3.396;2023-06-24T14:56:44;23.00;99.90
46758;DHT22;32509;47.750;-3.396;2023-06-24T14:59:11;23.00;99.90
46758;DHT22;32509;47.750;-3.396;2023-06-24T15:01:36;23.10;99.90
46758;DHT22;32509;47.750;-3.396;2023-06-24T15:04:03;23.00;99.90
46758;DHT22;32509;47.750;-3.396;2023-06-24T15:06:28;23.00;99.90
46758;DHT22;32509;47.750;-3.396;2023-06-24T15:08:54;22.90;99.90
46758;DHT22;32509;47.750;-3.396;2023-06-24T15:11:20;22.90;99.90
46758;DHT22;32509;47.750;-3.396;2023-06-24T15:13:46;22.90;99.90
46758;DHT22;32509;47.750;-3.396;2023-06-24T15:16:11;22.90;99.90
46758;DHT22;32509;47.750;-3.396;2023-06-24T15:18:47;22.80;99.90
46758;DHT22;32509;47.750;-3.396;2023-06-24T15:21:16;22.80;99.90
46758;DHT22;32509;47.750;-3.396;2023-06-24T15:23:42;22.80;99.90
46758;DHT22;32509;47.750;-3.396;2023-06-24T15:26:08;22.80;99.90
46758;DHT22;32509;47.750;-3.396;2023-06-24T15:28:33;22.80;99.90
46758;DHT22;32509;47.750;-3.396;2023-06-24T15:31:00;22.70;99.90
46758;DHT22;32509;47.750;-3.396;2023-06-24T15:33:25;22.70;99.90